sensor_id;sensor_type;location;lat;lon;timestamp;temperature;humidity
37412;DHT22;23278;52.110;6.050;2024-01-30T00:02:11;9.50;99.90
37412;DHT22;23278;52.110;6.050;2024-01-30T00:04:37;9.40;99.90
37412;DHT22;23278;52.110;6.050;2024-01-30T00:07:03;9.40;99.90
37412;DHT22;23278;52.110;6.050;2024-01-30T00:09:29;9.30;99.90
37412;DHT22;23278;52.110;6.050;2024-01-30T00:11:56;9.30;99.90
37412;DHT22;23278;52.110;6.050;2024-01-30T00:14:22;9.20;99.90
37412;DHT22;23278;52.110;6.050;2024-01-30T00:16:48;9.20;99.90
37412;DHT22;23278;52.110;6.050;2024-01-30T00:19:14;9.10;99.90
37412;DHT22;23278;52.110;6.050;2024-01-30T00:21:40;9.10;99.90
37412;DHT22;23278;52.110;6.050;2024-01-30T00:24:06;9.00;99.90
37412;DHT22;23278;52.110;6.050;2024-01-30T00:26:32;9.00;99.90
37412;DHT22;23278;52.110;6.050;2024-01-30T00:28:58;8.90;99.90
37412;DHT22;23278;52.110;6.050;2024-01-30T00:31:24;8.90;99.90
37412;DHT22;23278;52.110;6.050;2024-01-30T00:33:50;8.90;99.90
37412;DHT22;23278;52.110;6.050;2024-01-30T00:36:16;8.90;99.90
37412;DHT22;23278;52.110;6.050;2024-01-30T00:38:42;8.90;99.90
37412;DHT22;23278;52.110;6.050;2024-01-30T00:41:08;8.80;99.90
37412;DHT22;23278;52.110;6.050;2024-01-30T00:43:35;8.80;99.90
37412;DHT22;23278;52.110;6.050;2024-01-30T00:46:01;8.80;99.90
37412;DHT22;23278;52.110;6.050;2024-01-30T00:48:27;8.80;99.90
37412;DHT22;23278;52.110;6.050;2024-01-30T00:50:53;8.70;99.90
37412;DHT22;23278;52.110;6.050;2024-01-30T00:53:19;8.70;99.90
37412;DHT22;23278;52.110;6.050;2024-01-30T00:55:45;8.70;99.90
37412;DHT22;23278;52.110;6.050;2024-01-30T00:58:11;8.70;99.90
37412;DHT22;23278;52.110;6.050;2024-01-30T01:00:38;8.70;99.90
37412;DHT22;23278;52.110;6.050;2024-01-30T01:03:04;8.70;99.90
37412;DHT22;23278;52.110;6.050;2024-01-30T01:05:31;8.60;99.90
37412;DHT22;23278;52.110;6.050;2024-01-30T01:07:56;8.60;99.90
37412;DHT22;23278;52.110;6.050;2024-01-30T01:10:23;8.60;99.90
37412;DHT22;23278;52.110;6.050;2024-01-30T01:12:49;8.60;99.90
37412;DHT22;23278;52.110;6.050;2024-01-30T01:15:15;8.60;99.90
37412;DHT22;23278;52.110;6.050;2024-01-30T01:17:41;8.60;99.90
37412;DHT22;23278;52.110;6.050;2024-01-30T01:20:08;8.50;99.90
37412;DHT22;23278;52.110;6.050;2024-01-30T01:22:34;8.60;99.90
37412;DHT22;23278;52.110;6.050;2024-01-30T01:25:00;8.60;99.90
37412;DHT22;23278;52.110;6.050;2024-01-30T01:27:27;8.50;99.90
37412;DHT22;23278;52.110;6.050;2024-01-30T01:29:53;8.50;99.90
37412;DHT22;23278;52.110;6.050;2024-01-30T01:32:19;8.50;99.90
37412;DHT22;23278;52.110;6.050;2024-01-30T01:34:45;8.50;99.90
37412;DHT22;23278;52.110;6.050;2024-01-30T01:37:11;8.50;99.90
37412;DHT22;23278;52.110;6.050;2024-01-30T01:39:37;8.40;99.90
37412;DHT22;23278;52.110;6.050;2024-01-30T01:42:03;8.40;99.90
37412;DHT22;23278;52.110;6.050;2024-01-30T01:44:29;8.30;99.90
37412;DHT22;23278;52.110;6.050;2024-01-30T01:46:56;8.30;99.90
37412;DHT22;23278;52.110;6.050;2024-01-30T01:49:27;8.30;99.90
37412;DHT22;23278;52.110;6.050;2024-01-30T01:51:55;8.20;99.90
37412;DHT22;23278;52.110;6.050;2024-01-30T01:54:25;8.10;99.90
37412;DHT22;23278;52.110;6.050;2024-01-30T01:56:53;8.10;99.90
37412;DHT22;23278;52.110;6.050;2024-01-30T01:59:20;8.00;99.90
37412;DHT22;23278;52.110;6.050;2024-01-30T02:01:46;8.00;99.90
37412;DHT22;23278;52.110;6.050;2024-01-30T02:04:16;7.90;99.90
37412;DHT22;23278;52.110;6.050;2024-01-30T02:06:43;7.90;99.90
37412;DHT22;23278;52.110;6.050;2024-01-30T02:09:09;8.00;99.90
37412;DHT22;23278;52.110;6.050;2024-01-30T02:11:35;8.00;99.90
37412;DHT22;23278;52.110;6.050;2024-01-30T02:14:03;8.00;99.90
37412;DHT22;23278;52.110;6.050;2024-01-30T02:16:30;8.10;99.90
37412;DHT22;23278;52.110;6.050;2024-01-30T02:18:56;8.10;99.90
37412;DHT22;23278;52.110;6.050;2024-01-30T02:21:25;8.10;99.90
37412;DHT22;23278;52.110;6.050;2024-01-30T02:23:52;8.10;99.90
37412;DHT22;23278;52.110;6.050;2024-01-30T02:26:20;8.10;99.90
37412;DHT22;23278;52.110;6.050;2024-01-30T02:28:46;8.20;99.90
37412;DHT22;23278;52.110;6.050;2024-01-30T02:31:12;8.20;99.90
37412;DHT22;23278;52.110;6.050;2024-01-30T02:33:38;8.10;99.90
37412;DHT22;23278;52.110;6.050;2024-01-30T02:36:04;8.10;99.90
37412;DHT22;23278;52.110;6.050;2024-01-30T02:38:30;8.20;99.90
37412;DHT22;23278;52.110;6.050;2024-01-30T02:40:56;8.10;99.90
37412;DHT22;23278;52.110;6.050;2024-01-30T02:43:24;8.10;99.90
37412;DHT22;23278;52.110;6.050;2024-01-30T02:45:50;8.10;99.90
37412;DHT22;23278;52.110;6.050;2024-01-30T02:48:16;8.10;99.90
37412;DHT22;23278;52.110;6.050;2024-01-30T02:50:42;8.10;99.90
37412;DHT22;23278;52.110;6.050;2024-01-30T02:53:08;8.00;99.90
37412;DHT22;23278;52.110;6.050;2024-01-30T02:55:34;8.00;99.90
37412;DHT22;23278;52.110;6.050;2024-01-30T02:58:01;7.90;99.90
37412;DHT22;23278;52.110;6.050;2024-01-30T03:00:26;7.90;99.90
37412;DHT22;23278;52.110;6.050;2024-01-30T03:02:52;7.80;99.90
37412;DHT22;23278;52.110;6.050;2024-01-30T03:05:18;7.80;99.90
37412;DHT22;23278;52.110;6.050;2024-01-30T03:07:44;7.80;99.90
37412;DHT22;23278;52.110;6.050;2024-01-30T03:10:10;7.80;99.90
37412;DHT22;23278;52.110;6.050;2024-01-30T03:12:36;7.80;99.90
37412;DHT22;23278;52.110;6.050;2024-01-30T03:15:02;7.90;99.90
37412;DHT22;23278;52.110;6.050;2024-01-30T03:17:28;7.90;99.90
37412;DHT22;23278;52.110;6.050;2024-01-30T03:19:54;7.90;99.90
37412;DHT22;23278;52.110;6.050;2024-01-30T03:22:20;7.90;99.90
37412;DHT22;23278;52.110;6.050;2024-01-30T03:24:46;7.90;99.90
37412;DHT22;23278;52.110;6.050;2024-01-30T03:27:12;7.90;99.90
37412;DHT22;23278;52.110;6.050;2024-01-30T03:29:38;7.90;99.90
37412;DHT22;23278;52.110;6.050;2024-01-30T03:32:04;7.80;99.90
37412;DHT22;23278;52.110;6.050;2024-01-30T03:34:30;7.80;99.90
37412;DHT22;23278;52.110;6.050;2024-01-30T03:36:56;7.80;99.90
37412;DHT22;23278;52.110;6.050;2024-01-30T03:39:22;7.80;99.90
37412;DHT22;23278;52.110;6.050;2024-01-30T03:41:48;7.80;99.90
37412;DHT22;23278;52.110;6.050;2024-01-30T03:44:14;7.80;99.90
37412;DHT22;23278;52.110;6.050;2024-01-30T03:46:40;7.80;99.90
37412;DHT22;23278;52.110;6.050;2024-01-30T03:49:06;7.90;99.90
37412;DHT22;23278;52.110;6.050;2024-01-30T03:51:32;7.90;99.90
37412;DHT22;23278;52.110;6.050;2024-01-30T03:53:57;7.90;99.90
37412;DHT22;23278;52.110;6.050;2024-01-30T03:56:23;8.00;99.90
37412;DHT22;23278;52.110;6.050;2024-01-30T03:58:51;8.00;99.90
37412;DHT22;23278;52.110;6.050;2024-01-30T04:01:17;8.10;99.90
37412;DHT22;23278;52.110;6.050;2024-01-30T04:03:43;8.10;99.90
37412;DHT22;23278;52.110;6.050;2024-01-30T04:06:10;8.10;99.90
37412;DHT22;23278;52.110;6.050;2024-01-30T04:08:37;8.10;99.90
37412;DHT22;23278;52.110;6.050;2024-01-30T04:11:04;8.20;99.90
37412;DHT22;23278;52.110;6.050;2024-01-30T04:13:34;8.20;99.90
37412;DHT22;23278;52.110;6.050;2024-01-30T04:16:02;8.20;99.90
37412;DHT22;23278;52.110;6.050;2024-01-30T04:18:28;8.20;99.90
37412;DHT22;23278;52.110;6.050;2024-01-30T04:20:57;8.20;99.90
37412;DHT22;23278;52.110;6.050;2024-01-30T04:23:23;8.30;99.90
37412;DHT22;23278;52.110;6.050;2024-01-30T04:25:49;8.30;99.90
37412;DHT22;23278;52.110;6.050;2024-01-30T04:28:15;8.30;99.90
37412;DHT22;23278;52.110;6.050;2024-01-30T04:30:41;8.30;99.90
37412;DHT22;23278;52.110;6.050;2024-01-30T04:33:07;8.30;99.90
37412;DHT22;23278;52.110;6.050;2024-01-30T04:35:33;8.30;99.90
37412;DHT22;23278;52.110;6.050;2024-01-30T04:37:58;8.30;99.90
37412;DHT22;23278;52.110;6.050;2024-01-30T04:40:25;8.30;99.90
37412;DHT22;23278;52.110;6.050;2024-01-30T04:42:50;8.30;99.90
37412;DHT22;23278;52.110;6.050;2024-01-30T04:45:16;8.30;99.90
37412;DHT22;23278;52.110;6.050;2024-01-30T04:47:42;8.30;99.90
37412;DHT22;23278;52.110;6.050;2024-01-30T04:50:08;8.40;99.90
37412;DHT22;23278;52.110;6.050;2024-01-30T04:52:35;8.40;99.90
37412;DHT22;23278;52.110;6.050;2024-01-30T04:55:01;8.50;99.90
37412;DHT22;23278;52.110;6.050;2024-01-30T04:57:27;8.50;99.90
37412;DHT22;23278;52.110;6.050;2024-01-30T04:59:54;8.60;99.90
37412;DHT22;23278;52.110;6.050;2024-01-30T05:02:19;8.60;99.90
37412;DHT22;23278;52.110;6.050;2024-01-30T05:04:45;8.60;99.90
37412;DHT22;23278;52.110;6.050;2024-01-30T05:07:11;8.70;99.90
37412;DHT22;23278;52.110;6.050;2024-01-30T05:09:37;8.80;99.90
37412;DHT22;23278;52.110;6.050;2024-01-30T05:12:03;8.80;99.90
37412;DHT22;23278;52.110;6.050;2024-01-30T05:14:29;8.90;99.90
37412;DHT22;23278;52.110;6.050;2024-01-30T05:16:55;8.90;99.90
37412;DHT22;23278;52.110;6.050;2024-01-30T05:19:21;8.90;99.90
37412;DHT22;23278;52.110;6.050;2024-01-30T05:21:49;9.00;99.90
37412;DHT22;23278;52.110;6.050;2024-01-30T05:24:15;9.00;99.90
37412;DHT22;23278;52.110;6.050;2024-01-30T05:26:41;9.10;99.90
37412;DHT22;23278;52.110;6.050;2024-01-30T05:29:07;9.10;99.90
37412;DHT22;23278;52.110;6.050;2024-01-30T05:31:34;9.10;99.90
37412;DHT22;23278;52.110;6.050;2024-01-30T05:34:00;9.20;99.90
37412;DHT22;23278;52.110;6.050;2024-01-30T05:36:26;9.20;99.90
37412;DHT22;23278;52.110;6.050;2024-01-30T05:38:52;9.30;99.90
37412;DHT22;23278;52.110;6.050;2024-01-30T05:41:18;9.30;99.90
37412;DHT22;23278;52.110;6.050;2024-01-30T05:43:44;9.30;99.90
37412;DHT22;23278;52.110;6.050;2024-01-30T05:46:10;9.40;99.90
37412;DHT22;23278;52.110;6.050;2024-01-30T05:48:36;9.40;99.90
37412;DHT22;23278;52.110;6.050;2024-01-30T05:51:02;9.40;99.90
37412;DHT22;23278;52.110;6.050;2024-01-30T05:53:29;9.40;99.90
37412;DHT22;23278;52.110;6.050;2024-01-30T05:55:55;9.40;99.90
37412;DHT22;23278;52.110;6.050;2024-01-30T05:58:21;9.40;99.90
37412;DHT22;23278;52.110;6.050;2024-01-30T06:00:47;9.50;99.90
37412;DHT22;23278;52.110;6.050;2024-01-30T06:03:13;9.50;99.90
37412;DHT22;23278;52.110;6.050;2024-01-30T06:05:39;9.50;99.90
37412;DHT22;23278;52.110;6.050;2024-01-30T06:08:05;9.50;99.90
37412;DHT22;23278;52.110;6.050;2024-01-30T06:10:31;9.50;99.90
37412;DHT22;23278;52.110;6.050;2024-01-30T06:12:57;9.60;99.90
37412;DHT22;23278;52.110;6.050;2024-01-30T06:15:23;9.60;99.90
37412;DHT22;23278;52.110;6.050;2024-01-30T06:17:49;9.60;99.90
37412;DHT22;23278;52.110;6.050;2024-01-30T06:20:15;9.60;99.90
37412;DHT22;23278;52.110;6.050;2024-01-30T06:22:41;9.60;99.90
37412;DHT22;23278;52.110;6.050;2024-01-30T06:25:07;9.60;99.90
37412;DHT22;23278;52.110;6.050;2024-01-30T06:27:33;9.60;99.90
37412;DHT22;23278;52.110;6.050;2024-01-30T06:29:59;9.60;99.90
37412;DHT22;23278;52.110;6.050;2024-01-30T06:32:25;9.70;99.90
37412;DHT22;23278;52.110;6.050;2024-01-30T06:34:51;9.60;99.90
37412;DHT22;23278;52.110;6.050;2024-01-30T06:37:17;9.60;99.90
37412;DHT22;23278;52.110;6.050;2024-01-30T06:39:43;9.70;99.90
37412;DHT22;23278;52.110;6.050;2024-01-30T06:42:09;9.70;99.90
37412;DHT22;23278;52.110;6.050;2024-01-30T06:44:35;9.70;99.90
37412;DHT22;23278;52.110;6.050;2024-01-30T06:47:01;9.70;99.90
37412;DHT22;23278;52.110;6.050;2024-01-30T06:49:27;9.70;99.90
37412;DHT22;23278;52.110;6.050;2024-01-30T06:51:53;9.80;99.90
37412;DHT22;23278;52.110;6.050;2024-01-30T06:54:19;9.80;99.90
37412;DHT22;23278;52.110;6.050;2024-01-30T06:56:45;9.80;99.90
37412;DHT22;23278;52.110;6.050;2024-01-30T06:59:10;9.80;99.90
37412;DHT22;23278;52.110;6.050;2024-01-30T07:01:36;9.80;99.90
37412;DHT22;23278;52.110;6.050;2024-01-30T07:04:02;9.80;99.90
37412;DHT22;23278;52.110;6.050;2024-01-30T07:06:28;9.90;99.90
37412;DHT22;23278;52.110;6.050;2024-01-30T07:08:54;9.90;99.90
37412;DHT22;23278;52.110;6.050;2024-01-30T07:11:21;9.90;99.90
37412;DHT22;23278;52.110;6.050;2024-01-30T07:13:48;9.90;99.90
37412;DHT22;23278;52.110;6.050;2024-01-30T07:16:15;9.90;99.90
37412;DHT22;23278;52.110;6.050;2024-01-30T07:18:41;9.90;99.90
37412;DHT22;23278;52.110;6.050;2024-01-30T07:21:06;10.00;99.90
37412;DHT22;23278;52.110;6.050;2024-01-30T07:23:32;10.00;99.90
37412;DHT22;23278;52.110;6.050;2024-01-30T07:26:01;10.00;99.90
37412;DHT22;23278;52.110;6.050;2024-01-30T07:28:27;10.00;99.90
37412;DHT22;23278;52.110;6.050;2024-01-30T07:30:53;10.00;99.90
37412;DHT22;23278;52.110;6.050;2024-01-30T07:33:19;10.00;99.90
37412;DHT22;23278;52.110;6.050;2024-01-30T07:35:45;10.10;99.90
37412;DHT22;23278;52.110;6.050;2024-01-30T07:38:11;10.10;99.90
37412;DHT22;23278;52.110;6.050;2024-01-30T07:40:37;10.10;99.90
37412;DHT22;23278;52.110;6.050;2024-01-30T07:43:03;10.10;99.90
37412;DHT22;23278;52.110;6.050;2024-01-30T07:45:29;10.10;99.90
37412;DHT22;23278;52.110;6.050;2024-01-30T07:47:59;10.20;99.90
37412;DHT22;23278;52.110;6.050;2024-01-30T07:50:27;10.20;99.90
37412;DHT22;23278;52.110;6.050;2024-01-30T07:52:55;10.20;99.90
37412;DHT22;23278;52.110;6.050;2024-01-30T07:55:21;10.20;99.90
37412;DHT22;23278;52.110;6.050;2024-01-30T07:57:53;10.20;99.90
37412;DHT22;23278;52.110;6.050;2024-01-30T08:00:20;10.20;99.90
37412;DHT22;23278;52.110;6.050;2024-01-30T08:02:46;10.20;99.90
37412;DHT22;23278;52.110;6.050;2024-01-30T08:05:13;10.30;99.90
37412;DHT22;23278;52.110;6.050;2024-01-30T08:07:44;10.30;99.90
37412;DHT22;23278;52.110;6.050;2024-01-30T08:10:11;10.30;99.90
37412;DHT22;23278;52.110;6.050;2024-01-30T08:12:38;10.40;99.90
37412;DHT22;23278;52.110;6.050;2024-01-30T08:15:05;10.40;99.90
37412;DHT22;23278;52.110;6.050;2024-01-30T08:17:31;10.40;99.90
37412;DHT22;23278;52.110;6.050;2024-01-30T08:19:57;10.40;99.90
37412;DHT22;23278;52.110;6.050;2024-01-30T08:22:23;10.40;99.90
37412;DHT22;23278;52.110;6.050;2024-01-30T08:24:49;10.40;99.90
37412;DHT22;23278;52.110;6.050;2024-01-30T08:27:15;10.40;99.90
37412;DHT22;23278;52.110;6.050;2024-01-30T08:29:41;10.30;99.90
37412;DHT22;23278;52.110;6.050;2024-01-30T08:32:07;10.40;99.90
37412;DHT22;23278;52.110;6.050;2024-01-30T08:34:33;10.40;99.90
37412;DHT22;23278;52.110;6.050;2024-01-30T08:36:59;10.50;99.90
37412;DHT22;23278;52.110;6.050;2024-01-30T08:39:25;10.60;99.90
37412;DHT22;23278;52.110;6.050;2024-01-30T08:41:51;10.70;99.90
37412;DHT22;23278;52.110;6.050;2024-01-30T08:44:17;10.80;99.90
37412;DHT22;23278;52.110;6.050;2024-01-30T08:46:44;10.90;99.90
37412;DHT22;23278;52.110;6.050;2024-01-30T08:49:16;11.00;99.90
37412;DHT22;23278;52.110;6.050;2024-01-30T08:51:42;11.10;99.90
37412;DHT22;23278;52.110;6.050;2024-01-30T08:54:08;11.20;99.90
37412;DHT22;23278;52.110;6.050;2024-01-30T08:56:34;11.30;99.90
37412;DHT22;23278;52.110;6.050;2024-01-30T08:59:00;11.30;99.90
37412;DHT22;23278;52.110;6.050;2024-01-30T09:01:26;11.40;99.90
37412;DHT22;23278;52.110;6.050;2024-01-30T09:03:52;11.40;99.90
37412;DHT22;23278;52.110;6.050;2024-01-30T09:06:18;11.50;99.90
37412;DHT22;23278;52.110;6.050;2024-01-30T09:08:44;11.50;99.90
37412;DHT22;23278;52.110;6.050;2024-01-30T09:11:13;11.60;99.90
37412;DHT22;23278;52.110;6.050;2024-01-30T09:13:40;11.60;99.90
37412;DHT22;23278;52.110;6.050;2024-01-30T09:16:06;11.70;99.90
37412;DHT22;23278;52.110;6.050;2024-01-30T09:18:33;11.80;99.90
37412;DHT22;23278;52.110;6.050;2024-01-30T09:20:59;11.80;99.90
37412;DHT22;23278;52.110;6.050;2024-01-30T09:23:27;11.80;99.90
37412;DHT22;23278;52.110;6.050;2024-01-30T09:25:53;11.90;99.90
37412;DHT22;23278;52.110;6.050;2024-01-30T09:28:20;11.90;99.90
37412;DHT22;23278;52.110;6.050;2024-01-30T09:30:46;12.00;99.90
37412;DHT22;23278;52.110;6.050;2024-01-30T09:33:11;12.00;99.90
37412;DHT22;23278;52.110;6.050;2024-01-30T09:35:37;12.00;99.90
37412;DHT22;23278;52.110;6.050;2024-01-30T09:38:03;12.00;99.90
37412;DHT22;23278;52.110;6.050;2024-01-30T09:40:29;12.00;99.90
37412;DHT22;23278;52.110;6.050;2024-01-30T09:42:56;12.10;99.90
37412;DHT22;23278;52.110;6.050;2024-01-30T09:45:26;12.10;99.90
37412;DHT22;23278;52.110;6.050;2024-01-30T09:47:52;12.10;99.90
37412;DHT22;23278;52.110;6.050;2024-01-30T09:50:19;12.20;99.90
37412;DHT22;23278;52.110;6.050;2024-01-30T09:52:46;12.30;99.90
37412;DHT22;23278;52.110;6.050;2024-01-30T09:55:12;12.30;99.90
37412;DHT22;23278;52.110;6.050;2024-01-30T09:57:39;12.30;99.90
37412;DHT22;23278;52.110;6.050;2024-01-30T10:00:06;12.40;99.90
37412;DHT22;23278;52.110;6.050;2024-01-30T10:02:39;12.40;99.90
37412;DHT22;23278;52.110;6.050;2024-01-30T10:05:07;12.40;99.90
37412;DHT22;23278;52.110;6.050;2024-01-30T10:07:33;12.50;99.90
37412;DHT22;23278;52.110;6.050;2024-01-30T10:10:00;12.60;99.80
37412;DHT22;23278;52.110;6.050;2024-01-30T10:12:26;12.70;99.60
37412;DHT22;23278;52.110;6.050;2024-01-30T10:14:52;12.80;99.50
37412;DHT22;23278;52.110;6.050;2024-01-30T10:17:19;12.90;99.30
37412;DHT22;23278;52.110;6.050;2024-01-30T10:19:47;12.90;99.30
37412;DHT22;23278;52.110;6.050;2024-01-30T10:22:12;12.90;99.30
37412;DHT22;23278;52.110;6.050;2024-01-30T10:24:38;12.90;99.30
37412;DHT22;23278;52.110;6.050;2024-01-30T10:27:06;13.00;99.20
37412;DHT22;23278;52.110;6.050;2024-01-30T10:29:32;12.90;99.20
37412;DHT22;23278;52.110;6.050;2024-01-30T10:32:02;12.90;99.30
37412;DHT22;23278;52.110;6.050;2024-01-30T10:34:29;12.80;99.40
37412;DHT22;23278;52.110;6.050;2024-01-30T10:37:10;12.90;99.40
37412;DHT22;23278;52.110;6.050;2024-01-30T10:39:44;12.90;99.40
37412;DHT22;23278;52.110;6.050;2024-01-30T10:42:18;12.90;99.30
37412;DHT22;23278;52.110;6.050;2024-01-30T10:47:30;12.90;99.20
37412;DHT22;23278;52.110;6.050;2024-01-30T10:49:57;12.90;99.10
37412;DHT22;23278;52.110;6.050;2024-01-30T10:52:24;12.90;99.20
37412;DHT22;23278;52.110;6.050;2024-01-30T10:54:55;12.90;99.20
37412;DHT22;23278;52.110;6.050;2024-01-30T10:57:31;12.80;99.10
37412;DHT22;23278;52.110;6.050;2024-01-30T11:00:00;12.90;99.00
37412;DHT22;23278;52.110;6.050;2024-01-30T11:02:31;12.90;98.90
37412;DHT22;23278;52.110;6.050;2024-01-30T11:04:58;13.00;98.80
37412;DHT22;23278;52.110;6.050;2024-01-30T11:07:26;13.00;98.70
37412;DHT22;23278;52.110;6.050;2024-01-30T11:09:59;13.00;98.80
37412;DHT22;23278;52.110;6.050;2024-01-30T11:12:31;13.00;98.80
37412;DHT22;23278;52.110;6.050;2024-01-30T11:15:12;13.10;98.70
37412;DHT22;23278;52.110;6.050;2024-01-30T11:17:53;13.30;98.50
37412;DHT22;23278;52.110;6.050;2024-01-30T11:20:26;13.60;98.00
37412;DHT22;23278;52.110;6.050;2024-01-30T11:22:54;13.70;97.80
37412;DHT22;23278;52.110;6.050;2024-01-30T11:25:21;14.10;97.60
37412;DHT22;23278;52.110;6.050;2024-01-30T11:27:50;14.50;96.70
37412;DHT22;23278;52.110;6.050;2024-01-30T11:30:30;14.50;96.00
37412;DHT22;23278;52.110;6.050;2024-01-30T11:33:05;14.50;95.80
37412;DHT22;23278;52.110;6.050;2024-01-30T11:35:34;14.40;95.50
37412;DHT22;23278;52.110;6.050;2024-01-30T11:38:00;14.30;95.30
37412;DHT22;23278;52.110;6.050;2024-01-30T11:40:31;14.20;95.50
37412;DHT22;23278;52.110;6.050;2024-01-30T11:42:59;13.90;95.50
37412;DHT22;23278;52.110;6.050;2024-01-30T11:45:28;13.80;95.80
37412;DHT22;23278;52.110;6.050;2024-01-30T11:47:54;13.70;96.00
37412;DHT22;23278;52.110;6.050;2024-01-30T11:50:21;13.70;96.00
37412;DHT22;23278;52.110;6.050;2024-01-30T11:52:48;13.70;96.10
37412;DHT22;23278;52.110;6.050;2024-01-30T11:55:14;13.80;95.90
37412;DHT22;23278;52.110;6.050;2024-01-30T11:57:41;13.80;95.80
37412;DHT22;23278;52.110;6.050;2024-01-30T12:00:14;13.90;95.40
37412;DHT22;23278;52.110;6.050;2024-01-30T12:02:41;14.00;95.20
37412;DHT22;23278;52.110;6.050;2024-01-30T12:05:08;14.30;95.00
37412;DHT22;23278;52.110;6.050;2024-01-30T12:07:35;14.50;94.80
37412;DHT22;23278;52.110;6.050;2024-01-30T12:10:02;14.50;94.60
37412;DHT22;23278;52.110;6.050;2024-01-30T12:12:29;14.40;94.50
37412;DHT22;23278;52.110;6.050;2024-01-30T12:14:56;14.20;94.70
37412;DHT22;23278;52.110;6.050;2024-01-30T12:17:35;14.00;94.90
37412;DHT22;23278;52.110;6.050;2024-01-30T12:20:14;13.80;95.20
37412;DHT22;23278;52.110;6.050;2024-01-30T12:22:45;13.70;95.50
37412;DHT22;23278;52.110;6.050;2024-01-30T12:25:17;13.60;95.80
37412;DHT22;23278;52.110;6.050;2024-01-30T12:27:44;13.50;95.90
37412;DHT22;23278;52.110;6.050;2024-01-30T12:30:13;13.50;95.60
37412;DHT22;23278;52.110;6.050;2024-01-30T12:32:42;13.40;95.00
37412;DHT22;23278;52.110;6.050;2024-01-30T12:35:19;13.40;94.80
37412;DHT22;23278;52.110;6.050;2024-01-30T12:37:46;13.30;94.90
37412;DHT22;23278;52.110;6.050;2024-01-30T12:40:14;13.30;94.50
37412;DHT22;23278;52.110;6.050;2024-01-30T12:42:41;13.30;94.30
37412;DHT22;23278;52.110;6.050;2024-01-30T12:45:08;13.30;94.30
37412;DHT22;23278;52.110;6.050;2024-01-30T12:47:35;13.30;94.30
37412;DHT22;23278;52.110;6.050;2024-01-30T12:50:01;13.40;94.00
37412;DHT22;23278;52.110;6.050;2024-01-30T12:52:27;13.40;93.90
37412;DHT22;23278;52.110;6.050;2024-01-30T12:54:53;13.40;93.70
37412;DHT22;23278;52.110;6.050;2024-01-30T12:57:20;13.30;93.70
37412;DHT22;23278;52.110;6.050;2024-01-30T12:59:46;13.20;93.50
37412;DHT22;23278;52.110;6.050;2024-01-30T13:02:13;13.00;93.70
37412;DHT22;23278;52.110;6.050;2024-01-30T13:04:39;13.00;93.80
37412;DHT22;23278;52.110;6.050;2024-01-30T13:07:05;13.00;93.50
37412;DHT22;23278;52.110;6.050;2024-01-30T13:09:32;13.00;93.40
37412;DHT22;23278;52.110;6.050;2024-01-30T13:11:58;13.10;92.80
37412;DHT22;23278;52.110;6.050;2024-01-30T13:14:25;13.20;92.20
37412;DHT22;23278;52.110;6.050;2024-01-30T13:16:51;13.10;92.00
37412;DHT22;23278;52.110;6.050;2024-01-30T13:19:18;13.10;92.20
37412;DHT22;23278;52.110;6.050;2024-01-30T13:21:44;13.20;92.10
37412;DHT22;23278;52.110;6.050;2024-01-30T13:24:10;13.20;91.80
37412;DHT22;23278;52.110;6.050;2024-01-30T13:26:36;13.20;91.50
37412;DHT22;23278;52.110;6.050;2024-01-30T13:29:02;13.00;91.30
37412;DHT22;23278;52.110;6.050;2024-01-30T13:31:29;13.00;91.30
37412;DHT22;23278;52.110;6.050;2024-01-30T13:33:55;12.90;91.30
37412;DHT22;23278;52.110;6.050;2024-01-30T13:36:21;12.80;91.30
37412;DHT22;23278;52.110;6.050;2024-01-30T13:38:48;12.70;91.10
37412;DHT22;23278;52.110;6.050;2024-01-30T13:41:14;12.60;91.10
37412;DHT22;23278;52.110;6.050;2024-01-30T13:43:40;12.40;91.20
37412;DHT22;23278;52.110;6.050;2024-01-30T13:46:06;12.30;91.50
37412;DHT22;23278;52.110;6.050;2024-01-30T13:48:32;12.20;91.80
37412;DHT22;23278;52.110;6.050;2024-01-30T13:50:57;12.10;92.10
37412;DHT22;23278;52.110;6.050;2024-01-30T13:53:23;12.00;92.40
37412;DHT22;23278;52.110;6.050;2024-01-30T13:55:49;12.00;93.00
37412;DHT22;23278;52.110;6.050;2024-01-30T13:58:15;11.90;93.30
37412;DHT22;23278;52.110;6.050;2024-01-30T14:00:41;11.70;93.70
37412;DHT22;23278;52.110;6.050;2024-01-30T14:03:07;11.60;94.20
37412;DHT22;23278;52.110;6.050;2024-01-30T14:05:33;11.50;94.60
37412;DHT22;23278;52.110;6.050;2024-01-30T14:08:00;11.40;94.90
37412;DHT22;23278;52.110;6.050;2024-01-30T14:10:26;11.30;95.20
37412;DHT22;23278;52.110;6.050;2024-01-30T14:12:52;11.20;95.50
37412;DHT22;23278;52.110;6.050;2024-01-30T14:15:18;11.10;95.70
37412;DHT22;23278;52.110;6.050;2024-01-30T14:17:45;11.20;95.70
37412;DHT22;23278;52.110;6.050;2024-01-30T14:20:14;11.30;95.40
37412;DHT22;23278;52.110;6.050;2024-01-30T14:22:42;11.40;95.20
37412;DHT22;23278;52.110;6.050;2024-01-30T14:25:08;11.50;95.00
37412;DHT22;23278;52.110;6.050;2024-01-30T14:27:35;11.50;94.80
37412;DHT22;23278;52.110;6.050;2024-01-30T14:30:01;11.60;94.50
37412;DHT22;23278;52.110;6.050;2024-01-30T14:32:28;11.50;94.50
37412;DHT22;23278;52.110;6.050;2024-01-30T14:34:54;11.50;94.60
37412;DHT22;23278;52.110;6.050;2024-01-30T14:37:21;11.50;94.70
37412;DHT22;23278;52.110;6.050;2024-01-30T14:39:47;11.40;94.90
37412;DHT22;23278;52.110;6.050;2024-01-30T14:42:15;11.30;95.20
37412;DHT22;23278;52.110;6.050;2024-01-30T14:44:42;11.20;95.50
37412;DHT22;23278;52.110;6.050;2024-01-30T14:47:08;11.10;95.70
37412;DHT22;23278;52.110;6.050;2024-01-30T14:49:34;11.10;95.80
37412;DHT22;23278;52.110;6.050;2024-01-30T14:52:00;11.10;96.00
37412;DHT22;23278;52.110;6.050;2024-01-30T14:54:26;11.00;96.30
37412;DHT22;23278;52.110;6.050;2024-01-30T14:56:53;10.90;96.60
37412;DHT22;23278;52.110;6.050;2024-01-30T14:59:19;10.80;96.80
37412;DHT22;23278;52.110;6.050;2024-01-30T15:01:45;10.80;97.00
37412;DHT22;23278;52.110;6.050;2024-01-30T15:04:11;10.70;97.20
37412;DHT22;23278;52.110;6.050;2024-01-30T15:06:37;10.70;97.50
37412;DHT22;23278;52.110;6.050;2024-01-30T15:09:03;10.70;97.70
37412;DHT22;23278;52.110;6.050;2024-01-30T15:11:29;10.70;98.00
37412;DHT22;23278;52.110;6.050;2024-01-30T15:13:56;10.60;98.10
37412;DHT22;23278;52.110;6.050;2024-01-30T15:16:22;10.60;98.20
37412;DHT22;23278;52.110;6.050;2024-01-30T15:18:48;10.60;98.20
37412;DHT22;23278;52.110;6.050;2024-01-30T15:21:14;10.60;98.20
37412;DHT22;23278;52.110;6.050;2024-01-30T15:23:40;10.60;98.30
37412;DHT22;23278;52.110;6.050;2024-01-30T15:26:06;10.60;98.40
37412;DHT22;23278;52.110;6.050;2024-01-30T15:28:36;10.50;98.50
37412;DHT22;23278;52.110;6.050;2024-01-30T15:31:03;10.40;98.60
37412;DHT22;23278;52.110;6.050;2024-01-30T15:33:29;10.40;98.80
37412;DHT22;23278;52.110;6.050;2024-01-30T15:35:59;10.40;99.00
37412;DHT22;23278;52.110;6.050;2024-01-30T15:38:25;10.40;99.10